Time;durP1;ratioP1;P1;durP2;ratioP2;P2;SDS_P1;SDS_P2;PMS_P1;PMS_P2;Temp;Humidity;BMP_temperature;BMP_pressure;BME280_temperature;BME280_humidity;BME280_pressure;Samples;Min_cycle;Max_cycle;Signal;HPM_P1;HPM_P2
2023/01/03 00:01:53;;;;;;;70.70;45.20;;;;;;;0.16;100.00;98220.88;108027;1262;59739;-63
2023/01/03 00:04:21;;;;;;;66.60;41.80;;;;;;;0.17;100.00;98222.60;108024;1267;71486;-63
2023/01/03 00:06:52;;;;;;;55.00;38.70;;;;;;;0.15;100.00;98226.05;108004;1265;69906;-63
2023/01/03 00:09:23;;;;;;;53.80;36.50;;;;;;;0.13;100.00;98222.16;107583;1265;567469;-63
2023/01/03 00:14:42;;;;;;;46.60;32.20;;;;;;;-0.00;100.00;98216.89;108008;1265;59724;-63
2023/01/03 00:17:12;;;;;;;66.20;39.90;;;;;;;-0.03;100.00;98214.20;108052;1263;72055;-63
2023/01/03 00:19:43;;;;;;;86.00;48.90;;;;;;;-0.05;100.00;98214.41;108035;1263;69700;-63
2023/01/03 00:22:14;;;;;;;69.80;41.80;;;;;;;-0.08;100.00;98215.51;107976;1262;69871;-63
2023/01/03 00:24:45;;;;;;;58.00;37.90;;;;;;;-0.10;100.00;98216.04;107993;1266;59726;-63
2023/01/03 00:27:15;;;;;;;58.00;39.80;;;;;;;-0.12;100.00;98221.90;107994;1267;59723;-63
2023/01/03 00:29:44;;;;;;;76.70;48.30;;;;;;;-0.14;100.00;98225.02;107978;1267;71044;-63
2023/01/03 00:32:14;;;;;;;60.40;40.00;;;;;;;-0.15;100.00;98227.26;108002;1264;68664;-63
2023/01/03 00:34:44;;;;;;;;;;;;;;;-0.15;100.00;98229.66;107981;1260;69353;-63
2023/01/03 00:37:14;;;;;;;72.40;42.40;;;;;;;-0.16;100.00;98230.71;108003;1266;59750;-63
2023/01/03 00:39:43;;;;;;;54.30;34.20;;;;;;;-0.20;100.00;98229.40;108035;1266;59755;-63
2023/01/03 00:42:12;;;;;;;47.80;30.70;;;;;;;-0.23;100.00;98230.14;107865;1267;71577;-63
2023/01/03 00:44:41;;;;;;;56.00;36.40;;;;;;;-0.28;100.00;98230.58;108023;1263;69849;-63
2023/01/03 00:47:11;;;;;;;52.60;34.90;;;;;;;-0.34;100.00;98229.13;108016;1262;69297;-63
2023/01/03 00:49:41;;;;;;;61.30;37.00;;;;;;;-0.39;100.00;98228.35;108013;1262;59754;-63
2023/01/03 00:52:10;;;;;;;48.00;32.30;;;;;;;-0.43;100.00;98229.44;108030;1264;59687;-63
2023/01/03 00:54:39;;;;;;;66.60;36.90;;;;;;;-0.46;100.00;98226.06;108012;1265;72025;-63
2023/01/03 00:57:09;;;;;;;63.70;39.20;;;;;;;-0.49;100.00;98226.79;107984;1262;69672;-63
2023/01/03 00:59:38;;;;;;;59.10;36.30;;;;;;;-0.53;100.00;98224.80;107997;1267;69936;-63
2023/01/03 01:02:08;;;;;;;67.00;41.20;;;;;;;-0.54;100.00;98223.45;108012;1266;59757;-63
2023/01/03 01:04:37;;;;;;;55.70;37.40;;;;;;;-0.57;100.00;98224.50;107997;1265;59772;-63
2023/01/03 01:07:08;;;;;;;78.50;43.50;;;;;;;-0.58;100.00;98223.67;108008;1262;71506;-63
2023/01/03 01:09:37;;;;;;;77.00;42.40;;;;;;;-0.60;100.00;98222.86;108009;1265;69020;-63
2023/01/03 01:12:07;;;;;;;69.50;40.90;;;;;;;-0.59;100.00;98224.39;108006;1264;69890;-63
2023/01/03 01:14:37;;;;;;;48.70;31.20;;;;;;;-0.60;100.00;98224.73;107967;1262;59733;-64
2023/01/03 01:17:07;;;;;;;88.10;47.70;;;;;;;-0.60;100.00;98222.00;108022;1266;59751;-63
2023/01/03 01:19:42;;;;;;;71.10;42.70;;;;;;;-0.62;100.00;98222.87;107978;1261;70018;-63
2023/01/03 01:22:11;;;;;;;86.00;47.20;;;;;;;-0.64;100.00;98223.43;108023;1263;69542;-63
2023/01/03 01:24:40;;;;;;;90.60;47.50;;;;;;;-0.65;100.00;98218.46;107996;1260;69215;-63
2023/01/03 01:27:10;;;;;;;49.20;33.70;;;;;;;-0.64;100.00;98214.70;107988;1265;59810;-63
2023/01/03 01:29:39;;;;;;;82.60;45.50;;;;;;;-0.67;100.00;98209.25;107963;1261;59690;-63
2023/01/03 01:32:09;;;;;;;64.10;39.20;;;;;;;-0.70;100.00;98211.53;107999;1266;71339;-63
2023/01/03 01:34:38;;;;;;;65.70;37.10;;;;;;;-0.72;100.00;98214.14;107920;1266;68469;-64
2023/01/03 01:37:07;;;;;;;74.80;44.80;;;;;;;-0.73;100.00;98215.36;107985;1266;70086;-63
2023/01/03 01:39:36;;;;;;;78.80;43.90;;;;;;;-0.73;100.00;98213.82;107949;1262;59667;-64
2023/01/03 01:45:01;;;;;;;75.90;43.30;;;;;;;-0.77;100.00;98212.34;108001;1266;70625;-64
2023/01/03 01:47:54;;;;;;;87.90;41.30;;;;;;;-0.79;100.00;98211.67;107992;1265;69315;-63
2023/01/03 01:51:05;;;;;;;55.00;34.50;;;;;;;-0.81;100.00;98212.04;107959;1267;69789;-63
2023/01/03 01:53:38;;;;;;;61.00;33.60;;;;;;;-0.83;100.00;98205.76;107958;1263;59696;-64
2023/01/03 01:56:16;;;;;;;54.00;32.10;;;;;;;-0.86;100.00;98205.61;107987;1262;59643;-63
2023/01/03 01:58:50;;;;;;;55.30;33.00;;;;;;;-0.87;100.00;98205.80;108052;1263;71347;-63
2023/01/03 02:01:22;;;;;;;42.00;29.00;;;;;;;-0.87;100.00;98206.16;107982;1265;68423;-64
2023/01/03 02:04:23;;;;;;;55.40;30.80;;;;;;;-0.90;100.00;98204.13;107988;1263;69258;-64
2023/01/03 02:06:53;;;;;;;46.90;26.80;;;;;;;-0.97;100.00;98201.84;107937;1262;59911;-64
2023/01/03 02:09:22;;;;;;;41.20;26.30;;;;;;;-1.01;100.00;98199.32;107988;1263;59762;-64
2023/01/03 02:15:11;;;;;;;41.00;26.70;;;;;;;-1.07;100.00;98208.12;107985;1264;69264;-63
2023/01/03 02:18:15;;;;;;;41.50;25.40;;;;;;;-1.09;100.00;98202.33;107694;1263;69358;-63
2023/01/03 02:21:07;;;;;;;55.80;31.40;;;;;;;-1.08;100.00;98206.42;107991;1263;59683;-62
2023/01/03 02:24:25;;;;;;;59.20;31.40;;;;;;;-1.10;100.00;98202.88;107997;1265;59732;-63
2023/01/03 02:27:02;;;;;;;69.10;32.10;;;;;;;-1.13;100.00;98205.30;107944;1262;72045;-63
2023/01/03 02:29:59;;;;;;;75.60;34.20;;;;;;;-1.17;100.00;98205.53;107980;1265;69884;-63
2023/01/03 02:32:50;;;;;;;51.80;30.30;;;;;;;-1.25;100.00;98202.90;107991;1262;68470;-63
2023/01/03 02:35:43;;;;;;;60.40;31.20;;;;;;;-1.27;100.00;98202.59;108002;1262;59735;-63
2023/01/03 02:38:19;;;;;;;70.40;34.10;;;;;;;-1.29;100.00;98208.95;108017;1256;59661;-62
2023/01/03 02:41:27;;;;;;;56.30;32.90;;;;;;;-1.30;100.00;98210.32;107983;1266;70601;-63
2023/01/03 02:44:09;;;;;;;67.30;35.90;;;;;;;-1.30;100.00;98214.58;107997;1263;69142;-63
2023/01/03 02:46:46;;;;;;;68.20;33.30;;;;;;;-1.30;100.00;98216.47;107982;1266;68396;-63
2023/01/03 02:49:22;;;;;;;79.80;33.50;;;;;;;-1.30;100.00;98215.44;107962;1266;59695;-63
2023/01/03 02:51:57;;;;;;;61.90;34.10;;;;;;;-1.32;100.00;98214.95;107973;1266;59808;-62
2023/01/03 02:54:37;;;;;;;60.60;32.60;;;;;;;-1.33;100.00;98216.00;108004;1266;72021;-63
2023/01/03 02:57:17;;;;;;;64.40;31.70;;;;;;;-1.35;100.00;98215.67;107988;1262;69076;-63
2023/01/03 02:59:53;;;;;;;;;;;;;;;-1.35;100.00;98220.28;107976;1267;69312;-63
2023/01/03 03:02:28;;;;;;;52.80;29.40;;;;;;;-1.34;100.00;98219.42;107996;1260;59729;-63
2023/01/03 03:05:04;;;;;;;84.50;34.40;;;;;;;-1.31;100.00;98224.35;108004;1263;59700;-63
2023/01/03 03:07:38;;;;;;;71.70;37.10;;;;;;;-1.31;100.00;98225.38;107970;1265;71281;-63
2023/01/03 03:13:13;;;;;;;70.30;36.20;;;;;;;-1.37;100.00;98228.52;107974;1265;69196;-63
2023/01/03 03:15:57;;;;;;;58.20;33.10;;;;;;;-1.38;100.00;98232.84;108018;1262;59665;-63
2023/01/03 03:18:51;;;;;;;62.60;33.30;;;;;;;-1.43;100.00;98231.16;107984;1260;59753;-63
2023/01/03 03:30:13;;;;;;;117.90;40.70;;;;;;;-1.42;100.00;98241.92;107980;1261;59761;-63
2023/01/03 03:32:46;;;;;;;60.80;34.60;;;;;;;-1.41;100.00;98243.13;107981;1266;59732;-63
2023/01/03 03:35:23;;;;;;;73.30;36.90;;;;;;;-1.39;100.00;98245.64;107985;1266;70478;-63
2023/01/03 03:37:56;;;;;;;54.20;31.70;;;;;;;-1.38;100.00;98240.69;107988;1264;68686;-63
2023/01/03 03:46:23;;;;;;;50.30;29.40;;;;;;;-1.37;100.00;98232.46;107985;1266;59666;-63
2023/01/03 03:51:55;;;;;;;71.80;33.70;;;;;;;-1.35;100.00;98239.28;107955;1260;69670;-63
2023/01/03 03:54:26;;;;;;;52.10;30.90;;;;;;;-1.36;100.00;98241.33;107935;1264;69887;-63
2023/01/03 03:57:11;;;;;;;89.90;35.70;;;;;;;-1.40;100.00;98244.46;107957;1262;59688;-63
2023/01/03 03:59:45;;;;;;;49.20;29.20;;;;;;;-1.44;100.00;98245.20;108016;1263;59778;-63
2023/01/03 04:02:17;;;;;;;54.30;30.40;;;;;;;-1.46;100.00;98244.20;107985;1262;70985;-63
2023/01/03 04:04:51;;;;;;;45.80;27.30;;;;;;;-1.48;100.00;98244.89;107968;1260;68538;-63
2023/01/03 04:07:21;;;;;;;75.40;32.40;;;;;;;-1.47;100.00;98241.48;107927;1263;68510;-63
2023/01/03 04:09:50;;;;;;;66.90;36.00;;;;;;;-1.47;100.00;98236.87;107958;1266;59720;-63
2023/01/03 04:12:19;;;;;;;63.70;32.00;;;;;;;-1.46;100.00;98239.42;108005;1263;59694;-63
2023/01/03 04:14:49;;;;;;;61.30;31.10;;;;;;;-1.45;100.00;98241.45;107975;1264;71186;-63
2023/01/03 04:17:19;;;;;;;45.70;26.50;;;;;;;-1.43;100.00;98241.44;107978;1260;67355;-63
2023/01/03 04:19:48;;;;;;;41.50;24.10;;;;;;;-1.43;100.00;98240.40;108013;1265;69206;-63
2023/01/03 04:22:19;;;;;;;56.60;31.20;;;;;;;-1.42;100.00;98241.94;107997;1261;59809;-63
2023/01/03 04:24:48;;;;;;;50.50;29.20;;;;;;;-1.42;100.00;98242.96;107994;1264;59658;-63
2023/01/03 04:27:18;;;;;;;69.20;34.90;;;;;;;-1.42;100.00;98248.61;108009;1262;70621;-63
2023/01/03 04:29:49;;;;;;;46.80;30.20;;;;;;;-1.43;100.00;98249.80;107958;1263;69580;-63
2023/01/03 04:32:19;;;;;;;73.30;31.80;;;;;;;-1.44;100.00;98249.29;107979;1262;69877;-63
2023/01/03 04:34:48;;;;;;;42.70;25.70;;;;;;;-1.45;100.00;98248.29;107949;1266;59641;-63
2023/01/03 04:37:18;;;;;;;44.90;29.70;;;;;;;-1.47;100.00;98245.92;107987;1266;59665;-63
2023/01/03 04:39:48;;;;;;;43.60;27.30;;;;;;;-1.49;100.00;98241.84;107983;1266;71666;-63
2023/01/03 04:45:07;;;;;;;52.90;27.90;;;;;;;-1.51;100.00;98236.91;108010;1262;69303;-63
2023/01/03 04:47:38;;;;;;;63.00;32.30;;;;;;;-1.52;100.00;98237.77;107986;1257;59774;-63
2023/01/03 04:50:09;;;;;;;53.70;30.60;;;;;;;-1.53;100.00;98239.14;108024;1265;59725;-64
2023/01/03 04:52:39;;;;;;;46.80;27.30;;;;;;;-1.54;100.00;98241.71;108066;1260;71249;-63
2023/01/03 04:55:09;;;;;;;40.50;24.90;;;;;;;-1.56;100.00;98247.05;108030;1266;69182;-63
2023/01/03 04:57:38;;;;;;;35.90;22.20;;;;;;;-1.58;100.00;98246.89;107928;1266;69899;-63
2023/01/03 05:00:09;;;;;;;36.50;23.40;;;;;;;-1.61;100.00;98251.90;107961;1262;59780;-63
2023/01/03 05:02:38;;;;;;;53.60;28.40;;;;;;;-1.64;100.00;98255.33;107981;1265;59756;-63
2023/01/03 05:05:08;;;;;;;;;;;;;;;-1.74;100.00;98251.69;108001;1264;71432;-63
2023/01/03 05:07:38;;;;;;;41.40;24.10;;;;;;;-1.81;100.00;98256.02;107988;1262;69227;-63
2023/01/03 05:10:08;;;;;;;;;;;;;;;-1.86;100.00;98256.24;107969;1265;68593;-63
2023/01/03 05:12:39;;;;;;;32.20;21.30;;;;;;;-1.89;100.00;98257.65;107985;1264;59690;-63
2023/01/03 05:15:09;;;;;;;35.00;22.80;;;;;;;-1.90;100.00;98262.27;108020;1262;59724;-63
2023/01/03 05:17:38;;;;;;;38.40;22.80;;;;;;;-1.90;100.00;98262.77;107998;1266;71413;-63
2023/01/03 05:25:49;;;;;;;38.90;24.00;;;;;;;-1.95;100.00;98260.95;107995;1264;59769;-63
2023/01/03 05:28:21;;;;;;;50.70;26.30;;;;;;;-1.96;100.00;98263.35;108027;1265;59661;-63
2023/01/03 05:30:51;;;;;;;51.00;26.50;;;;;;;-1.97;100.00;98267.80;108007;1266;71949;-63
2023/01/03 05:33:20;;;;;;;42.90;22.80;;;;;;;-1.96;100.00;98268.48;108007;1260;69131;-63
2023/01/03 05:35:49;;;;;;;44.10;25.20;;;;;;;-1.95;100.00;98272.04;108047;1262;69587;-63
2023/01/03 05:38:18;;;;;;;48.40;26.20;;;;;;;-1.96;100.00;98272.91;107997;1266;59782;-63
2023/01/03 05:40:48;;;;;;;45.90;26.90;;;;;;;-2.00;100.00;98276.71;108008;1260;59707;-62
2023/01/03 05:43:17;;;;;;;37.80;22.00;;;;;;;-2.04;100.00;98277.42;108021;1265;71998;-62
2023/01/03 05:45:51;;;;;;;56.40;25.80;;;;;;;-2.06;100.00;98281.88;108036;1266;69397;-63
2023/01/03 05:48:21;;;;;;;52.30;27.20;;;;;;;-2.10;100.00;98283.28;107993;1266;69363;-63
2023/01/03 05:50:51;;;;;;;45.90;24.20;;;;;;;-2.13;100.00;98289.13;107962;1266;59732;-63
2023/01/03 05:53:19;;;;;;;71.70;29.00;;;;;;;-2.17;100.00;98293.08;107993;1265;59707;-64
2023/01/03 05:55:48;;;;;;;57.40;27.00;;;;;;;-2.20;100.00;98298.39;107995;1260;70415;-62
2023/01/03 05:58:17;;;;;;;48.10;25.10;;;;;;;-2.22;100.00;98295.33;108019;1263;68358;-62
2023/01/03 06:00:46;;;;;;;79.10;31.70;;;;;;;-2.23;100.00;98299.44;108020;1262;70343;-62
2023/01/03 06:03:15;;;;;;;56.60;27.20;;;;;;;-2.26;100.00;98305.11;108004;1267;60024;-62
2023/01/03 06:05:44;;;;;;;90.20;32.60;;;;;;;-2.27;100.00;98308.54;107991;1263;59652;-62
2023/01/03 06:08:17;;;;;;;73.90;28.20;;;;;;;-2.31;100.00;98310.27;107990;1262;72544;-62
2023/01/03 06:10:47;;;;;;;38.30;24.10;;;;;;;-2.35;100.00;98314.91;108031;1265;68500;-63
2023/01/03 06:13:16;;;;;;;45.90;23.40;;;;;;;-2.36;100.00;98313.70;107964;1265;69921;-63
2023/01/03 06:17:53;;;;;;;55.80;27.20;;;;;;;-2.36;100.00;98315.94;107985;1262;59756;-63
2023/01/03 06:18:35;;;;;;;39.50;23.10;;;;;;;-2.35;100.00;98320.20;107991;1263;59703;-63
2023/01/03 06:21:05;;;;;;;51.10;26.80;;;;;;;-2.31;100.00;98328.20;108051;1266;71405;-63
2023/01/03 06:23:34;;;;;;;47.40;27.40;;;;;;;-2.29;100.00;98328.86;108017;1263;68392;-63
2023/01/03 06:26:04;;;;;;;55.30;29.20;;;;;;;-2.26;100.00;98326.98;107973;1260;70288;-63
2023/01/03 06:28:33;;;;;;;54.50;28.90;;;;;;;-2.23;100.00;98328.14;108021;1262;59695;-63
2023/01/03 06:31:04;;;;;;;41.50;26.30;;;;;;;-2.17;100.00;98328.09;108008;1265;59754;-63
2023/01/03 06:33:33;;;;;;;50.20;27.30;;;;;;;-2.11;100.00;98329.76;107968;1260;71570;-64
2023/01/03 06:36:05;;;;;;;61.50;31.50;;;;;;;-2.06;100.00;98329.03;107992;1256;69809;-64
2023/01/03 06:38:35;;;;;;;46.70;26.50;;;;;;;-2.01;100.00;98332.92;108023;1260;69876;-64
2023/01/03 06:41:04;;;;;;;48.40;28.30;;;;;;;-1.95;100.00;98328.77;107999;1265;59759;-62
2023/01/03 06:43:34;;;;;;;51.60;29.40;;;;;;;-1.88;100.00;98326.33;108011;1262;59684;-62
2023/01/03 06:54:30;;;;;;;72.90;37.40;;;;;;;-1.63;100.00;98319.95;107997;1260;59777;-63
2023/01/03 06:56:59;;;;;;;67.60;34.30;;;;;;;-1.58;100.00;98321.94;108072;1266;59693;-63
2023/01/03 06:59:28;;;;;;;59.60;35.20;;;;;;;-1.51;100.00;98324.62;108015;1265;70767;-63
2023/01/03 07:01:57;;;;;;;81.70;38.30;;;;;;;-1.45;100.00;98330.03;108009;1263;69770;-63
2023/01/03 07:04:26;;;;;;;69.30;38.20;;;;;;;-1.38;100.00;98333.36;107967;1266;69548;-64
2023/01/03 07:06:55;;;;;;;62.70;34.10;;;;;;;-1.26;100.00;98337.86;107977;1261;59703;-63
2023/01/03 07:09:24;;;;;;;74.40;39.20;;;;;;;-1.13;100.00;98342.51;107990;1265;59704;-63
2023/01/03 07:11:53;;;;;;;71.00;37.50;;;;;;;-1.03;100.00;98342.91;108006;1266;71246;-63
2023/01/03 07:14:23;;;;;;;71.80;35.10;;;;;;;-0.95;100.00;98347.42;107979;1262;69843;-64
2023/01/03 07:16:54;;;;;;;52.90;32.20;;;;;;;-0.85;100.00;98344.41;107946;1266;68712;-64
2023/01/03 07:19:23;;;;;;;47.40;30.90;;;;;;;-0.78;100.00;98340.02;107974;1263;59740;-64
2023/01/03 07:21:52;;;;;;;78.10;36.90;;;;;;;-0.79;100.00;98339.87;108005;1263;59716;-64
2023/01/03 07:24:21;;;;;;;64.70;35.80;;;;;;;-0.73;100.00;98343.21;108015;1263;71383;-64
2023/01/03 07:26:50;;;;;;;49.00;31.40;;;;;;;-0.76;100.00;98350.80;108018;1266;69205;-64
2023/01/03 07:29:19;;;;;;;67.80;34.20;;;;;;;-0.74;100.00;98356.77;107935;1266;67587;-64
2023/01/03 07:31:48;;;;;;;81.70;35.20;;;;;;;-0.76;100.00;98356.10;107944;1262;59839;-64
2023/01/03 07:34:20;;;;;;;66.70;32.00;;;;;;;-0.75;100.00;98350.10;108008;1263;59728;-64
2023/01/03 07:36:49;;;;;;;53.80;31.00;;;;;;;-0.75;100.00;98348.55;107974;1265;71969;-64
2023/01/03 07:39:21;;;;;;;45.50;30.30;;;;;;;-0.71;100.00;98355.52;107701;1263;69702;-62
2023/01/03 07:44:39;;;;;;;59.80;31.00;;;;;;;-0.67;100.00;98363.33;107957;1264;59829;-64
2023/01/03 07:47:08;;;;;;;40.40;29.00;;;;;;;-0.61;100.00;98367.03;108039;1266;59687;-64
2023/01/03 07:49:37;;;;;;;54.50;31.90;;;;;;;-0.58;100.00;98371.44;108072;1263;72113;-63
2023/01/03 07:52:06;;;;;;;55.30;29.80;;;;;;;-0.49;100.00;98374.08;108032;1265;69799;-64
2023/01/03 07:54:35;;;;;;;40.10;28.40;;;;;;;-0.40;100.00;98371.05;107965;1265;69913;-63
2023/01/03 07:57:03;;;;;;;43.80;29.00;;;;;;;-0.34;100.00;98372.67;107705;1262;59727;-63
2023/01/03 07:59:32;;;;;;;36.10;26.40;;;;;;;-0.25;100.00;98371.85;108038;1264;59696;-64
2023/01/03 08:02:01;;;;;;;39.60;27.50;;;;;;;-0.19;100.00;98372.80;108019;1266;71854;-64
2023/01/03 08:04:30;;;;;;;31.40;21.30;;;;;;;-0.02;100.00;98372.89;108017;1263;69811;-64
2023/01/03 08:07:00;;;;;;;29.20;22.40;;;;;;;0.18;100.00;98372.39;107991;1263;69600;-64
2023/01/03 08:15:04;;;;;;;40.00;26.00;;;;;;;0.72;100.00;98370.10;107995;1265;71386;-64
2023/01/03 08:17:32;;;;;;;36.30;26.20;;;;;;;0.87;99.92;98372.23;108018;1263;69984;-64
2023/01/03 08:20:01;;;;;;;40.40;28.60;;;;;;;1.06;98.89;98371.71;108034;1265;69116;-64
2023/01/03 08:22:31;;;;;;;29.10;22.30;;;;;;;1.16;96.75;98368.23;108100;1262;59677;-64
2023/01/03 08:25:00;;;;;;;31.80;24.10;;;;;;;1.28;96.17;98371.09;108082;1263;59694;-64
2023/01/03 08:27:29;;;;;;;35.70;24.20;;;;;;;1.33;95.43;98370.83;107978;1262;71970;-64
2023/01/03 08:29:58;;;;;;;39.10;27.30;;;;;;;1.44;94.97;98371.98;108019;1263;69200;-64
2023/01/03 08:32:27;;;;;;;35.70;27.00;;;;;;;1.41;94.85;98372.55;107969;1256;69862;-64
2023/01/03 08:34:57;;;;;;;40.50;26.60;;;;;;;1.47;95.20;98376.55;108002;1263;59691;-64
2023/01/03 08:37:27;;;;;;;34.90;26.40;;;;;;;1.69;94.27;98370.24;108005;1263;59759;-64
2023/01/03 08:40:00;;;;;;;35.70;25.70;;;;;;;1.72;93.45;98368.44;108021;1265;71829;-64
2023/01/03 08:42:30;;;;;;;34.50;26.40;;;;;;;1.91;93.86;98366.98;108023;1265;69172;-65
2023/01/03 08:45:05;;;;;;;35.50;27.10;;;;;;;2.17;93.20;98364.84;107719;1265;69305;-64
2023/01/03 08:47:34;;;;;;;41.20;27.80;;;;;;;2.25;91.44;98362.24;108005;1263;59861;-65
2023/01/03 08:50:04;;;;;;;30.10;22.00;;;;;;;2.00;91.32;98363.15;107982;1266;59937;-65
2023/01/03 08:52:32;;;;;;;46.30;28.80;;;;;;;2.10;91.92;98354.87;107692;1267;71527;-66
2023/01/03 08:55:04;;;;;;;46.80;27.00;;;;;;;2.35;92.11;98357.35;108004;1265;69955;-64
2023/01/03 08:57:32;;;;;;;62.20;35.10;;;;;;;2.24;92.21;98351.93;108003;1263;69922;-64
2023/01/03 09:00:04;;;;;;;65.50;32.10;;;;;;;2.19;92.00;98352.76;107696;1267;59751;-64
2023/01/03 09:02:34;;;;;;;62.10;31.40;;;;;;;2.04;92.80;98344.67;107995;1265;59706;-64
2023/01/03 09:05:04;;;;;;;76.90;33.30;;;;;;;2.07;93.02;98344.27;107967;1262;71384;-64
2023/01/03 09:07:32;;;;;;;48.90;32.30;;;;;;;2.00;93.61;98344.77;108020;1260;69146;-65
2023/01/03 09:10:03;;;;;;;40.90;28.50;;;;;;;1.94;93.81;98342.52;107705;1265;68597;-64
2023/01/03 09:12:31;;;;;;;49.40;31.00;;;;;;;1.86;94.74;98342.18;107986;1266;59724;-64
2023/01/03 09:15:01;;;;;;;46.80;32.20;;;;;;;1.79;95.34;98340.96;108017;1266;59760;-64
2023/01/03 09:17:29;;;;;;;42.00;28.30;;;;;;;1.71;96.12;98342.70;107975;1265;71827;-64
2023/01/03 09:19:58;;;;;;;41.90;27.30;;;;;;;1.76;96.49;98336.38;107989;1260;69678;-64
2023/01/03 09:22:27;;;;;;;64.20;31.40;;;;;;;1.73;97.07;98333.86;107972;1265;70376;-64
2023/01/03 09:24:56;;;;;;;63.30;29.50;;;;;;;1.73;97.28;98330.61;108002;1266;59727;-65
2023/01/03 09:27:25;;;;;;;115.00;32.90;;;;;;;1.69;97.09;98324.85;107988;1262;59661;-65
2023/01/03 09:29:54;;;;;;;58.20;32.60;;;;;;;1.62;97.82;98315.91;107985;1266;71923;-65
2023/01/03 09:32:22;;;;;;;106.60;36.40;;;;;;;1.61;98.52;98315.77;108010;1265;69102;-65
2023/01/03 09:34:51;;;;;;;65.10;33.00;;;;;;;1.48;99.76;98316.22;107981;1265;69302;-65
2023/01/03 09:37:20;;;;;;;51.30;28.90;;;;;;;1.44;99.99;98319.23;107995;1266;59780;-65
2023/01/03 09:39:49;;;;;;;81.50;32.50;;;;;;;1.37;100.00;98320.07;107989;1264;59698;-65
2023/01/03 09:45:24;;;;;;;61.30;31.90;;;;;;;1.50;100.00;98319.27;108005;1265;69812;-64
2023/01/03 09:47:55;;;;;;;53.60;32.20;;;;;;;1.78;100.00;98314.52;107993;1263;69288;-65
2023/01/03 09:50:27;;;;;;;69.20;34.40;;;;;;;2.05;100.00;98308.55;107928;1263;59727;-65
2023/01/03 10:05:55;;;;;;;51.80;33.30;;;;;;;2.21;99.99;98293.04;107988;1265;59755;-65
2023/01/03 10:08:24;;;;;;;46.00;30.90;;;;;;;2.41;99.70;98291.80;107749;1265;59699;-65
2023/01/03 10:11:07;;;;;;;67.90;31.80;;;;;;;2.58;99.56;98291.89;108057;1265;71375;-63
2023/01/03 10:13:38;;;;;;;;;;;;;;;2.63;98.12;98288.33;108040;1260;68727;-63
2023/01/03 10:16:29;;;;;;;31.60;21.10;;;;;;;2.68;98.86;98285.43;108021;1260;69610;-63
2023/01/03 10:19:13;;;;;;;78.50;31.80;;;;;;;2.98;98.08;98289.06;107984;1260;59718;-63
2023/01/03 10:22:05;;;;;;;70.40;29.90;;;;;;;3.12;97.06;98295.74;108035;1265;59697;-64
2023/01/03 10:24:45;;;;;;;44.10;26.50;;;;;;;3.11;96.90;98293.33;108003;1265;70770;-64
2023/01/03 10:27:16;;;;;;;59.20;25.30;;;;;;;2.96;97.06;98294.29;107989;1265;69010;-64
2023/01/03 10:29:46;;;;;;;48.70;25.60;;;;;;;2.95;97.26;98294.48;108005;1266;68832;-64
2023/01/03 10:32:33;;;;;;;41.10;26.10;;;;;;;2.77;98.30;98295.66;108019;1264;59726;-63
2023/01/03 10:35:17;;;;;;;84.40;26.80;;;;;;;2.76;99.58;98291.05;108043;1256;59635;-64
2023/01/03 10:37:46;;;;;;;49.60;25.60;;;;;;;2.91;99.04;98289.77;107986;1262;71408;-66
2023/01/03 10:40:15;;;;;;;49.20;23.30;;;;;;;2.92;98.52;98285.79;108049;1265;68255;-65
2023/01/03 10:42:44;;;;;;;88.40;28.20;;;;;;;2.88;99.30;98286.60;108017;1262;69007;-65
2023/01/03 10:45:20;;;;;;;53.00;24.80;;;;;;;2.93;99.31;98286.45;108150;1260;59750;-64
2023/01/03 10:48:00;;;;;;;33.50;21.40;;;;;;;2.94;99.51;98285.02;108015;1266;59699;-65
2023/01/03 10:50:29;;;;;;;;;;;;;;;3.20;99.15;98287.04;107989;1266;70557;-64
2023/01/03 10:53:04;;;;;;;54.40;23.40;;;;;;;3.30;98.23;98287.80;108047;1260;68536;-64
2023/01/03 10:55:34;;;;;;;104.10;26.90;;;;;;;3.28;98.43;98284.58;107997;1266;69186;-64
2023/01/03 10:58:19;;;;;;;66.10;24.30;;;;;;;3.29;98.35;98285.58;107996;1262;59654;-64
2023/01/03 11:00:48;;;;;;;75.10;26.60;;;;;;;3.21;98.80;98282.21;108021;1262;59656;-64
2023/01/03 11:03:18;;;;;;;51.00;24.90;;;;;;;3.28;98.68;98275.45;108022;1267;71689;-64
2023/01/03 11:06:00;;;;;;;53.50;22.70;;;;;;;3.27;98.66;98274.45;107971;1265;69893;-64
2023/01/03 11:08:56;;;;;;;39.20;23.00;;;;;;;3.28;97.96;98276.49;107933;1265;69914;-65
2023/01/03 11:11:40;;;;;;;41.20;23.40;;;;;;;3.24;98.53;98276.06;107981;1266;59730;-64
2023/01/03 11:14:08;;;;;;;44.60;23.50;;;;;;;3.33;98.12;98272.70;107949;1256;59718;-65
2023/01/03 11:16:37;;;;;;;59.60;25.70;;;;;;;3.34;98.26;98271.30;107952;1263;71391;-65
2023/01/03 11:19:14;;;;;;;34.50;20.90;;;;;;;3.33;97.76;98271.15;107980;1263;69900;-64
2023/01/03 11:21:43;;;;;;;47.00;22.20;;;;;;;3.27;98.20;98273.05;107983;1262;69756;-65
2023/01/03 11:24:27;;;;;;;54.50;24.70;;;;;;;3.31;98.48;98269.51;107910;1266;59778;-64
2023/01/03 11:27:03;;;;;;;43.50;22.90;;;;;;;3.41;98.01;98265.23;107938;1266;59772;-64
2023/01/03 11:29:51;;;;;;;44.80;21.60;;;;;;;3.43;97.56;98270.18;107940;1266;71233;-64
2023/01/03 11:32:32;;;;;;;35.60;21.20;;;;;;;3.24;98.29;98271.94;108011;1261;68596;-65
2023/01/03 11:35:06;;;;;;;37.00;21.70;;;;;;;3.37;98.94;98271.57;107963;1263;68767;-65
2023/01/03 11:38:28;;;;;;;36.00;22.70;;;;;;;3.82;98.19;98269.29;107919;1266;60136;-65
2023/01/03 11:41:04;;;;;;;42.10;22.00;;;;;;;4.08;95.98;98274.48;107962;1266;59769;-65
2023/01/03 11:43:34;;;;;;;38.30;21.90;;;;;;;4.15;95.28;98271.67;107962;1266;69412;-65
2023/01/03 11:46:15;;;;;;;33.60;22.40;;;;;;;4.17;94.91;98269.88;107962;1262;68676;-65
2023/01/03 11:49:17;;;;;;;35.20;23.50;;;;;;;4.19;94.15;98267.73;107988;1266;68158;-65
2023/01/03 11:52:20;;;;;;;33.60;20.90;;;;;;;4.21;93.96;98261.80;107970;1263;59690;-65
2023/01/03 11:55:03;;;;;;;32.90;20.70;;;;;;;4.33;94.44;98254.84;107994;1266;59668;-65
2023/01/03 11:57:50;;;;;;;35.70;24.40;;;;;;;4.35;93.27;98250.30;108016;1265;70354;-65
2023/01/03 12:00:31;;;;;;;30.90;22.20;;;;;;;4.26;93.15;98251.30;107956;1266;69816;-65
2023/01/03 12:03:41;;;;;;;35.80;23.40;;;;;;;4.10;93.71;98254.23;107941;1266;69473;-65
2023/01/03 12:06:21;;;;;;;30.60;20.60;;;;;;;4.17;93.87;98253.34;107308;1272;59812;-65
2023/01/03 12:09:02;;;;;;;30.20;20.10;;;;;;;4.17;93.70;98250.38;107051;1269;399746;-65
2023/01/03 12:11:55;;;;;;;31.60;21.60;;;;;;;4.11;94.11;98249.20;107766;1265;71202;-65
2023/01/03 12:14:36;;;;;;;33.90;23.60;;;;;;;4.06;94.20;98249.52;107995;1266;69669;-65
2023/01/03 12:17:13;;;;;;;35.00;24.00;;;;;;;3.99;94.54;98248.92;107978;1263;69143;-65
2023/01/03 12:19:56;;;;;;;35.30;23.60;;;;;;;3.86;95.02;98245.55;107976;1266;59702;-65
2023/01/03 12:22:34;;;;;;;38.80;23.90;;;;;;;3.74;95.87;98242.84;107965;1262;59737;-65
2023/01/03 12:25:34;;;;;;;33.90;24.10;;;;;;;3.72;96.91;98238.77;108010;1266;71861;-65
2023/01/03 12:28:13;;;;;;;32.20;21.90;;;;;;;3.77;96.86;98239.11;107982;1262;69265;-65
2023/01/03 12:31:10;;;;;;;35.10;23.80;;;;;;;3.78;98.19;98239.77;107958;1260;69095;-65
2023/01/03 12:33:41;;;;;;;33.50;21.60;;;;;;;3.83;97.44;98242.53;107949;1260;59710;-66
2023/01/03 12:36:37;;;;;;;34.20;22.70;;;;;;;3.83;97.47;98243.04;107956;1266;59770;-64
2023/01/03 12:39:37;;;;;;;37.40;24.80;;;;;;;3.84;97.34;98237.84;107932;1265;71205;-64
2023/01/03 12:42:21;;;;;;;35.70;24.40;;;;;;;3.77;96.61;98235.15;107943;1265;68238;-64
2023/01/03 12:45:15;;;;;;;35.70;24.20;;;;;;;3.64;97.38;98231.77;107954;1262;69104;-64
2023/01/03 12:48:08;;;;;;;38.40;25.00;;;;;;;3.57;97.38;98232.49;107922;1266;59759;-64
2023/01/03 12:50:48;;;;;;;34.70;22.90;;;;;;;3.53;97.72;98230.73;108013;1266;59695;-65
2023/01/03 12:53:25;;;;;;;37.50;24.20;;;;;;;3.53;99.21;98228.33;107995;1263;71987;-65